createdAt,value
2023-03-10T00:00:37.532Z,97473.00
2023-03-10T00:03:35.333Z,97477.60
2023-03-10T00:06:33.397Z,97469.40
2023-03-10T00:09:30.886Z,97472.20
2023-03-10T00:12:28.821Z,97471.60
2023-03-10T00:15:26.369Z,97465.40
2023-03-10T00:18:24.353Z,97463.60
2023-03-10T00:21:22.230Z,97454.00
2023-03-10T00:24:20.193Z,97454.20
2023-03-10T00:27:17.639Z,97451.00
2023-03-10T00:30:15.553Z,97440.60
2023-03-10T00:33:13.022Z,97434.40
2023-03-10T00:36:10.925Z,97428.40
2023-03-10T00:39:11.673Z,97425.00
2023-03-10T00:42:09.704Z,97424.00
2023-03-10T00:45:07.204Z,97413.00
2023-03-10T00:48:04.721Z,97406.00
2023-03-10T00:51:02.184Z,97403.80
2023-03-10T00:54:00.046Z,97402.60
2023-03-10T00:56:57.498Z,97396.40
2023-03-10T00:59:55.465Z,97387.80
2023-03-10T01:02:55.616Z,97383.40
2023-03-10T01:05:53.563Z,97378.80
2023-03-10T01:08:51.192Z,97365.60
2023-03-10T01:11:49.643Z,97361.40
2023-03-10T01:14:47.136Z,97353.60
2023-03-10T01:17:45.040Z,97346.60
2023-03-10T01:20:42.784Z,97341.00
2023-03-10T01:23:40.677Z,97342.80
2023-03-10T01:26:38.124Z,97339.60
2023-03-10T01:29:35.996Z,97335.80
2023-03-10T01:32:33.574Z,97332.80
2023-03-10T01:35:32.143Z,97324.00
2023-03-10T01:38:30.224Z,97313.00
2023-03-10T01:41:27.772Z,97311.20
2023-03-10T01:44:25.712Z,97299.80
2023-03-10T01:47:23.170Z,97296.60
2023-03-10T01:50:21.106Z,97286.80
2023-03-10T01:53:18.595Z,97284.00
2023-03-10T01:56:16.518Z,97282.60
2023-03-10T01:59:14.009Z,97271.00
2023-03-10T02:02:11.961Z,97267.00
2023-03-10T02:05:09.466Z,97262.40
2023-03-10T02:08:07.470Z,97253.20
2023-03-10T02:11:05.449Z,97246.60
2023-03-10T02:14:02.950Z,97240.20
2023-03-10T02:17:00.841Z,97235.20
2023-03-10T02:19:58.355Z,97221.20
2023-03-10T02:22:56.414Z,97219.20
2023-03-10T02:25:53.983Z,97224.40
2023-03-10T02:28:52.154Z,97220.60
2023-03-10T02:31:49.757Z,97216.40
2023-03-10T02:34:47.596Z,97204.20
2023-03-10T02:37:45.151Z,97205.20
2023-03-10T02:40:43.223Z,97193.80
2023-03-10T02:43:40.682Z,97189.80
2023-03-10T02:46:38.551Z,97188.20
2023-03-10T02:49:36.011Z,97191.00
2023-03-10T02:52:33.881Z,97184.80
2023-03-10T02:55:31.338Z,97183.40
2023-03-10T02:58:29.324Z,97178.80
2023-03-10T03:01:28.002Z,97164.20
2023-03-10T03:04:26.022Z,97163.80
2023-03-10T03:07:23.449Z,97153.20
2023-03-10T03:10:21.328Z,97152.80
2023-03-10T03:13:18.760Z,97140.60
2023-03-10T03:16:16.689Z,97133.80
2023-03-10T03:19:14.196Z,97142.00
2023-03-10T03:22:12.048Z,97155.60
2023-03-10T03:25:09.973Z,97130.00
2023-03-10T03:28:07.944Z,97134.60
2023-03-10T03:31:05.392Z,97127.00
2023-03-10T03:34:02.910Z,97130.40
2023-03-10T03:37:00.334Z,97128.00
2023-03-10T03:39:58.319Z,97117.60
2023-03-10T03:42:55.911Z,97109.20
2023-03-10T03:45:53.858Z,97099.40
2023-03-10T03:48:51.309Z,97088.60
2023-03-10T03:51:49.123Z,97087.60
2023-03-10T03:54:46.564Z,97071.40
2023-03-10T03:57:45.397Z,97072.20
2023-03-10T04:00:43.263Z,97063.20
2023-03-10T04:03:41.117Z,97046.60
2023-03-10T04:06:38.633Z,97043.00
2023-03-10T04:09:36.446Z,97042.00
2023-03-10T04:12:34.211Z,97029.40
2023-03-10T04:15:31.698Z,97025.40
2023-03-10T04:18:29.637Z,97013.40
2023-03-10T04:21:27.107Z,97012.20
2023-03-10T04:24:24.986Z,97004.40
2023-03-10T04:27:22.481Z,96990.20
2023-03-10T04:30:21.544Z,96985.80
2023-03-10T04:33:18.993Z,96981.40
2023-03-10T04:36:16.992Z,96971.60
2023-03-10T04:39:15.032Z,96965.00
2023-03-10T04:42:12.463Z,96962.60
2023-03-10T04:45:10.394Z,96956.60
2023-03-10T04:48:09.107Z,96950.60
2023-03-10T04:51:06.576Z,96938.80
2023-03-10T04:54:04.490Z,96939.40
2023-03-10T04:57:01.960Z,96937.60
2023-03-10T05:00:02.348Z,96935.40
2023-03-10T05:03:00.523Z,96934.20
2023-03-10T05:05:58.429Z,96929.00
2023-03-10T05:08:55.882Z,96928.40
2023-03-10T05:11:53.776Z,96926.00
2023-03-10T05:14:51.622Z,96917.00
2023-03-10T05:17:50.163Z,96922.40
2023-03-10T05:20:49.236Z,96919.80
2023-03-10T05:23:46.724Z,96918.40
2023-03-10T05:26:44.616Z,96913.00
2023-03-10T05:29:42.058Z,96907.20
2023-03-10T05:32:40.215Z,96905.40
2023-03-10T05:35:38.345Z,96903.00
2023-03-10T05:38:35.880Z,96893.40
2023-03-10T05:41:33.894Z,96894.60
2023-03-10T05:44:31.390Z,96904.80
2023-03-10T05:47:29.416Z,96904.20
2023-03-10T05:50:26.896Z,96905.20
2023-03-10T05:53:26.074Z,96896.40
2023-03-10T05:56:23.534Z,96885.20
2023-03-10T05:59:21.365Z,96879.00
2023-03-10T06:02:18.799Z,96874.80
2023-03-10T06:05:16.732Z,96867.80
2023-03-10T06:08:14.598Z,96863.40
2023-03-10T06:11:12.078Z,96863.80
2023-03-10T06:14:10.051Z,96856.60
2023-03-10T06:17:07.538Z,96860.60
2023-03-10T06:20:05.885Z,96857.00
2023-03-10T06:23:03.501Z,96855.00
2023-03-10T06:26:01.512Z,96853.00
2023-03-10T06:28:58.976Z,96859.80
2023-03-10T06:31:56.972Z,96864.00
2023-03-10T06:34:54.458Z,96871.20
2023-03-10T06:37:52.274Z,96870.00
2023-03-10T06:40:49.726Z,96868.00
2023-03-10T06:43:47.623Z,96859.00
2023-03-10T06:46:45.115Z,96861.60
2023-03-10T06:49:43.245Z,96867.20
2023-03-10T06:52:43.298Z,96860.20
2023-03-10T06:55:40.772Z,96860.80
2023-03-10T06:58:38.702Z,96855.40
2023-03-10T07:01:36.325Z,96854.60
2023-03-10T07:04:34.418Z,96846.60
2023-03-10T07:07:32.262Z,96835.00
2023-03-10T07:10:30.201Z,96838.00
2023-03-10T07:13:27.674Z,96832.20
2023-03-10T07:16:25.675Z,96826.40
2023-03-10T07:19:23.135Z,96830.80
2023-03-10T07:22:21.255Z,96830.00
2023-03-10T07:25:18.721Z,96823.80
2023-03-10T07:28:16.576Z,96818.80
2023-03-10T07:31:14.078Z,96811.40
2023-03-10T07:34:12.028Z,96806.40
2023-03-10T07:37:09.976Z,96810.40
2023-03-10T07:40:07.430Z,96806.40
2023-03-10T07:43:05.353Z,96809.20
2023-03-10T07:46:02.802Z,96808.80
2023-03-10T07:49:05.349Z,96802.00
2023-03-10T07:52:03.511Z,96792.80
2023-03-10T07:55:01.291Z,96789.80
2023-03-10T07:58:00.538Z,96787.00
2023-03-10T08:00:58.346Z,96787.40
2023-03-10T08:03:57.974Z,96786.00
2023-03-10T08:06:56.045Z,96781.80
2023-03-10T08:09:53.475Z,96780.80
2023-03-10T08:12:51.595Z,96780.60
2023-03-10T08:15:49.082Z,96784.40
2023-03-10T08:18:47.117Z,96784.80
2023-03-10T08:21:44.994Z,96785.20
2023-03-10T08:24:42.467Z,96783.40
2023-03-10T08:27:41.939Z,96787.60
2023-03-10T08:30:52.459Z,96783.60
2023-03-10T08:33:57.242Z,96789.40
2023-03-10T08:36:55.216Z,96795.60
2023-03-10T08:39:54.334Z,96808.80
2023-03-10T08:42:51.940Z,96818.20
2023-03-10T08:45:49.683Z,96818.40
2023-03-10T08:48:47.328Z,96818.40
2023-03-10T08:51:44.778Z,96811.80
2023-03-10T08:54:43.372Z,96810.20
2023-03-10T08:57:41.125Z,96813.40
2023-03-10T09:00:38.582Z,96811.20
2023-03-10T09:03:36.414Z,96814.80
2023-03-10T09:06:33.885Z,96821.40
2023-03-10T09:09:31.612Z,96816.80
2023-03-10T09:12:34.564Z,96812.00
2023-03-10T09:15:35.020Z,96815.80
2023-03-10T09:18:32.466Z,96811.80
2023-03-10T09:21:33.174Z,96813.60
2023-03-10T09:24:30.962Z,96817.20
2023-03-10T09:27:29.260Z,96822.20
2023-03-10T09:30:26.688Z,96833.00
2023-03-10T09:33:24.480Z,96829.40
2023-03-10T09:36:22.308Z,96825.40
2023-03-10T09:39:19.819Z,96827.20
2023-03-10T09:42:25.187Z,96827.00
2023-03-10T09:45:26.716Z,96830.40
2023-03-10T09:48:26.357Z,96828.00
2023-03-10T09:51:24.401Z,96826.80
2023-03-10T09:54:21.877Z,96823.20
2023-03-10T09:57:19.487Z,96818.80
2023-03-10T10:00:17.944Z,96818.80
2023-03-10T10:03:15.600Z,96823.20
2023-03-10T10:06:13.079Z,96831.40
2023-03-10T10:09:10.713Z,96836.40
2023-03-10T10:12:08.734Z,96832.60
2023-03-10T10:15:06.261Z,96832.40
2023-03-10T10:18:17.478Z,96832.40
2023-03-10T10:21:16.608Z,96826.60
2023-03-10T10:24:14.288Z,96824.40
2023-03-10T10:27:19.936Z,96825.40
2023-03-10T10:30:18.638Z,96822.80
2023-03-10T10:33:16.384Z,96817.20
2023-03-10T10:36:13.853Z,96828.40
2023-03-10T10:39:13.332Z,96826.40
2023-03-10T10:42:11.537Z,96824.40
2023-03-10T10:45:10.510Z,96829.60
2023-03-10T10:48:07.930Z,96826.20
2023-03-10T10:51:05.522Z,96822.80
2023-03-10T10:54:03.298Z,96827.80
2023-03-10T10:57:00.770Z,96834.40
2023-03-10T10:59:58.534Z,96838.60
2023-03-10T11:02:56.000Z,96840.80
2023-03-10T11:05:55.418Z,96835.80
2023-03-10T11:08:53.880Z,96834.80
2023-03-10T11:11:51.504Z,96838.20
2023-03-10T11:14:50.123Z,96832.80
2023-03-10T11:17:47.597Z,96830.80
2023-03-10T11:20:45.276Z,96823.40
2023-03-10T11:23:42.806Z,96822.80
2023-03-10T11:26:40.444Z,96816.60
2023-03-10T11:29:37.923Z,96818.00
2023-03-10T11:32:35.598Z,96811.80
2023-03-10T11:35:34.514Z,96810.60
2023-03-10T11:38:31.985Z,96796.40
2023-03-10T11:41:29.727Z,96809.20
2023-03-10T11:44:27.154Z,96807.80
2023-03-10T11:47:24.872Z,96817.40
2023-03-10T11:50:22.331Z,96811.40
2023-03-10T11:53:21.945Z,96808.20
2023-03-10T11:56:19.443Z,96792.00
2023-03-10T11:59:17.081Z,96797.20
2023-03-10T12:02:14.680Z,96806.80
2023-03-10T12:05:12.137Z,96806.20
2023-03-10T12:08:09.979Z,96813.00
2023-03-10T12:11:07.420Z,96805.60
2023-03-10T12:14:05.125Z,96816.60
2023-03-10T12:17:02.784Z,96813.00
2023-03-10T12:20:00.288Z,96798.20
2023-03-10T12:22:58.063Z,96785.60
2023-03-10T12:25:55.624Z,96794.40
2023-03-10T12:28:53.404Z,96806.40
2023-03-10T12:31:51.620Z,96801.20
2023-03-10T12:34:49.275Z,96796.20
2023-03-10T12:37:47.096Z,96784.40
2023-03-10T12:40:44.724Z,96779.20
2023-03-10T12:43:42.527Z,96785.40
2023-03-10T12:46:40.433Z,96794.00
2023-03-10T12:49:38.366Z,96790.60
2023-03-10T12:52:35.812Z,96797.80
2023-03-10T12:55:33.926Z,96796.00
2023-03-10T12:58:32.079Z,96792.80
2023-03-10T13:01:29.744Z,96789.20
2023-03-10T13:04:27.715Z,96780.20
2023-03-10T13:07:25.515Z,96780.20
2023-03-10T13:10:23.357Z,96782.20
2023-03-10T13:13:20.920Z,96780.60
2023-03-10T13:16:18.968Z,96779.00
2023-03-10T13:19:17.377Z,96779.20
2023-03-10T13:22:15.858Z,96782.40
2023-03-10T13:25:13.630Z,96782.80
2023-03-10T13:28:11.606Z,96786.60
2023-03-10T13:31:09.375Z,96782.60
2023-03-10T13:34:06.881Z,96778.00
2023-03-10T13:37:04.698Z,96771.80
2023-03-10T13:40:02.257Z,96774.20
2023-03-10T13:43:00.029Z,96777.60
2023-03-10T13:45:57.869Z,96777.20
2023-03-10T13:48:55.564Z,96775.20
2023-03-10T13:51:53.328Z,96775.40
2023-03-10T13:54:50.887Z,96774.20
2023-03-10T13:57:48.775Z,96784.60
2023-03-10T14:00:51.986Z,96782.20
2023-03-10T14:03:49.470Z,96781.60
2023-03-10T14:06:47.590Z,96779.80
2023-03-10T14:09:45.250Z,96783.60
2023-03-10T14:12:43.233Z,96780.40
2023-03-10T14:15:40.749Z,96784.20
2023-03-10T14:18:38.963Z,96781.00
2023-03-10T14:21:36.704Z,96778.60
2023-03-10T14:24:35.621Z,96766.00
2023-03-10T14:27:33.595Z,96762.80
2023-03-10T14:30:31.180Z,96756.60
2023-03-10T14:33:29.336Z,96760.20
2023-03-10T14:36:26.793Z,96766.60
2023-03-10T14:39:24.867Z,96761.20
2023-03-10T14:42:22.473Z,96757.20
2023-03-10T14:45:19.924Z,96755.60
2023-03-10T14:48:18.639Z,96750.60
2023-03-10T14:51:29.064Z,96738.80
2023-03-10T14:54:30.627Z,96733.20
2023-03-10T14:57:28.895Z,96722.20
2023-03-10T15:00:26.750Z,96711.20
2023-03-10T15:03:24.188Z,96696.80
2023-03-10T15:06:21.988Z,96701.00
2023-03-10T15:09:20.298Z,96700.40
2023-03-10T15:12:18.385Z,96700.40
2023-03-10T15:15:16.626Z,96701.60
2023-03-10T15:18:14.160Z,96707.20
2023-03-10T15:21:11.661Z,96716.00
2023-03-10T15:24:09.291Z,96722.80
2023-03-10T15:27:07.076Z,96728.20
2023-03-10T15:30:05.920Z,96723.60
2023-03-10T15:33:03.666Z,96721.20
2023-03-10T15:36:01.751Z,96713.60
2023-03-10T15:38:59.240Z,96714.40
2023-03-10T15:41:58.378Z,96708.00
2023-03-10T15:44:55.826Z,96704.20
2023-03-10T15:47:53.552Z,96702.80
2023-03-10T15:50:51.163Z,96702.80
2023-03-10T15:53:48.778Z,96700.60
2023-03-10T15:56:46.416Z,96695.80
2023-03-10T15:59:44.756Z,96690.00
2023-03-10T16:02:42.441Z,96684.40
2023-03-10T16:05:40.165Z,96683.20
2023-03-10T16:08:39.446Z,96682.80
2023-03-10T16:11:36.909Z,96687.00
2023-03-10T16:14:34.624Z,96682.80
2023-03-10T16:17:32.063Z,96680.60
2023-03-10T16:20:30.760Z,96705.00
2023-03-10T16:23:28.716Z,96742.60
2023-03-10T16:26:27.901Z,96733.40
2023-03-10T16:29:26.134Z,96732.00
2023-03-10T16:32:24.551Z,96730.80
2023-03-10T16:35:26.735Z,96733.40
2023-03-10T16:38:25.585Z,96729.80
2023-03-10T16:41:24.678Z,96733.40
2023-03-10T16:44:23.883Z,96725.00
2023-03-10T16:47:23.503Z,96719.40
2023-03-10T16:50:21.860Z,96719.80
2023-03-10T16:53:20.227Z,96707.60
2023-03-10T16:56:19.656Z,96699.20
2023-03-10T16:59:18.574Z,96704.20
2023-03-10T17:02:19.467Z,96712.60
2023-03-10T17:05:17.993Z,96709.20
2023-03-10T17:08:16.315Z,96719.20
2023-03-10T17:11:15.848Z,96720.80
2023-03-10T17:14:15.240Z,96722.00
2023-03-10T17:17:14.452Z,96724.60
2023-03-10T17:20:12.252Z,96729.00
2023-03-10T17:23:09.892Z,96724.80
2023-03-10T17:26:08.152Z,96730.00
2023-03-10T17:29:08.109Z,96726.00
2023-03-10T17:32:06.242Z,96732.80
2023-03-10T17:35:04.744Z,96724.80
2023-03-10T17:38:03.113Z,96723.00
2023-03-10T17:41:03.063Z,96720.80
2023-03-10T17:44:01.521Z,96727.40
2023-03-10T17:46:59.481Z,96727.20
2023-03-10T17:50:00.326Z,96721.80
2023-03-10T17:52:58.216Z,96725.80
2023-03-10T17:55:57.935Z,96731.00
2023-03-10T17:58:56.132Z,96728.80
2023-03-10T18:01:54.608Z,96728.00
2023-03-10T18:04:52.717Z,96724.40
2023-03-10T18:07:54.016Z,96720.40
2023-03-10T18:10:52.080Z,96725.00
2023-03-10T18:13:49.723Z,96713.60
2023-03-10T18:16:47.759Z,96710.60
2023-03-10T18:19:45.823Z,96713.00
2023-03-10T18:22:43.744Z,96712.20
2023-03-10T18:25:44.406Z,96714.00
2023-03-10T18:28:42.578Z,96710.80
2023-03-10T18:31:42.168Z,96714.80
2023-03-10T18:34:41.414Z,96710.80
2023-03-10T18:37:41.209Z,96718.40
2023-03-10T18:40:39.091Z,96726.00
2023-03-10T18:43:38.291Z,96725.20
2023-03-10T18:46:36.914Z,96724.20
2023-03-10T18:49:35.363Z,96727.60
2023-03-10T18:52:34.134Z,96724.20
2023-03-10T18:55:33.160Z,96728.40
2023-03-10T18:58:33.563Z,96726.80
2023-03-10T19:01:33.117Z,96730.20
2023-03-10T19:04:33.847Z,96730.20
2023-03-10T19:07:32.597Z,96721.40
2023-03-10T19:10:32.136Z,96716.40
2023-03-10T19:13:30.939Z,96710.80
2023-03-10T19:16:29.903Z,96715.60
2023-03-10T19:19:29.498Z,96721.80
2023-03-10T19:22:27.615Z,96717.00
2023-03-10T19:25:26.365Z,96721.60
2023-03-10T19:28:25.210Z,96718.40
2023-03-10T19:31:24.227Z,96732.40
2023-03-10T19:34:22.502Z,96738.40
2023-03-10T19:37:22.399Z,96738.20
2023-03-10T19:40:20.794Z,96755.20
2023-03-10T19:43:19.726Z,96761.40
2023-03-10T19:46:20.123Z,96784.00
2023-03-10T19:49:18.176Z,96802.80
2023-03-10T19:52:17.315Z,96802.60
2023-03-10T19:55:17.151Z,96809.80
2023-03-10T19:58:16.005Z,96817.60
2023-03-10T20:01:15.363Z,96822.20
2023-03-10T20:04:14.179Z,96824.20
2023-03-10T20:07:13.749Z,96800.40
2023-03-10T20:10:12.445Z,96816.60
2023-03-10T20:13:12.104Z,96805.20
2023-03-10T20:16:11.045Z,96818.00
2023-03-10T20:19:10.369Z,96818.80
2023-03-10T20:22:08.744Z,96800.40
2023-03-10T20:25:07.024Z,96785.80
2023-03-10T20:28:05.904Z,96779.40
2023-03-10T20:31:04.626Z,96777.40
2023-03-10T20:34:03.162Z,96791.20
2023-03-10T20:37:01.892Z,96777.00
2023-03-10T20:40:02.233Z,96772.40
2023-03-10T20:43:01.836Z,96752.00
2023-03-10T20:46:01.342Z,96749.80
2023-03-10T20:49:00.412Z,96736.00
2023-03-10T20:51:59.280Z,96744.20
2023-03-10T20:54:58.608Z,96754.60
2023-03-10T20:57:57.224Z,96763.20
2023-03-10T21:00:55.992Z,96759.80
2023-03-10T21:03:54.855Z,96756.00
2023-03-10T21:06:53.284Z,96776.00
2023-03-10T21:09:51.821Z,96772.40
2023-03-10T21:12:50.125Z,96785.80
2023-03-10T21:15:48.980Z,96784.00
2023-03-10T21:18:47.640Z,96775.20
2023-03-10T21:21:45.566Z,96785.80
2023-03-10T21:24:43.377Z,96777.40
2023-03-10T21:27:41.061Z,96786.20
2023-03-10T21:30:40.744Z,96799.80
2023-03-10T21:33:39.889Z,96787.60
2023-03-10T21:36:38.193Z,96794.40
2023-03-10T21:39:36.197Z,96794.20
2023-03-10T21:42:34.010Z,96788.20
2023-03-10T21:45:34.543Z,96806.40
2023-03-10T21:48:32.421Z,96804.20
2023-03-10T21:51:31.603Z,96812.00
2023-03-10T21:54:30.970Z,96812.20
2023-03-10T21:57:28.612Z,96813.20
2023-03-10T22:00:28.429Z,96821.40
2023-03-10T22:03:26.194Z,96831.40
2023-03-10T22:06:23.683Z,96833.40
2023-03-10T22:09:21.292Z,96834.20
2023-03-10T22:12:19.477Z,96832.00
2023-03-10T22:15:17.132Z,96830.60
2023-03-10T22:18:14.596Z,96825.00
2023-03-10T22:21:12.494Z,96819.60
2023-03-10T22:24:11.354Z,96825.80
2023-03-10T22:27:10.379Z,96815.20
2023-03-10T22:30:09.297Z,96809.40
2023-03-10T22:33:07.721Z,96801.20
2023-03-10T22:36:05.573Z,96797.00
2023-03-10T22:39:03.028Z,96795.40
2023-03-10T22:42:01.875Z,96791.40
2023-03-10T22:44:59.743Z,96793.20
2023-03-10T22:47:57.208Z,96784.80
2023-03-10T22:50:54.972Z,96797.40
2023-03-10T22:53:52.436Z,96811.60
2023-03-10T22:56:50.503Z,96827.60
2023-03-10T22:59:47.935Z,96856.40
2023-03-10T23:02:45.666Z,96846.40
2023-03-10T23:05:45.243Z,96850.00
2023-03-10T23:08:43.791Z,96851.60
2023-03-10T23:11:41.396Z,96867.20
2023-03-10T23:14:38.845Z,96858.60
2023-03-10T23:17:36.626Z,96866.20
2023-03-10T23:20:34.393Z,96851.20
2023-03-10T23:23:32.234Z,96838.80
2023-03-10T23:26:30.532Z,96850.00
2023-03-10T23:29:27.972Z,96847.00
2023-03-10T23:32:25.792Z,96832.60
2023-03-10T23:35:23.222Z,96826.40
2023-03-10T23:38:20.970Z,96820.80
2023-03-10T23:41:19.384Z,96808.80
2023-03-10T23:44:16.815Z,96826.40
2023-03-10T23:47:14.432Z,96825.80
2023-03-10T23:50:11.860Z,96828.80
2023-03-10T23:53:09.625Z,96813.00
2023-03-10T23:56:07.066Z,96817.00
2023-03-10T23:59:05.358Z,96804.40
